Time;durP1;ratioP1;P1;durP2;ratioP2;P2;SDS_P1;SDS_P2;PMS_P1;PMS_P2;Temp;Humidity;BMP_temperature;BMP_pressure;BME280_temperature;BME280_humidity;BME280_pressure;Samples;Min_cycle;Max_cycle;Signal;HPM_P1;HPM_P2
2021/12/15 00:01:35;;;;;;;8.05;5.18;;;11.30;99.90;;;;;;4969812;28;20195;-74
2021/12/15 00:04:01;;;;;;;6.85;4.38;;;11.30;99.90;;;;;;4975332;28;20246;-71
2021/12/15 00:06:27;;;;;;;6.10;4.68;;;11.30;99.90;;;;;;4971298;28;20216;-74
2021/12/15 00:08:56;;;;;;;8.07;4.80;;;11.40;99.90;;;;;;4970391;28;20253;-72
2021/12/15 00:11:32;;;;;;;9.95;5.07;;;11.40;99.90;;;;;;4976822;28;20241;-76
2021/12/15 00:14:00;;;;;;;6.50;4.60;;;11.40;99.90;;;;;;4975867;28;20195;-73
2021/12/15 00:16:31;;;;;;;5.60;4.35;;;11.40;99.90;;;;;;4966608;28;20283;-71
2021/12/15 00:18:59;;;;;;;5.55;4.18;;;11.40;99.90;;;;;;4973562;28;20176;-74
2021/12/15 00:21:25;;;;;;;5.82;4.65;;;11.30;99.90;;;;;;4963806;28;20216;-74
2021/12/15 00:23:51;;;;;;;5.90;4.32;;;11.30;99.90;;;;;;4970534;28;20344;-74
2021/12/15 00:26:17;;;;;;;5.45;4.00;;;11.40;99.90;;;;;;4965757;28;20280;-74
2021/12/15 00:28:44;;;;;;;5.70;4.32;;;11.30;99.90;;;;;;4964652;28;20177;-74
2021/12/15 00:31:12;;;;;;;5.28;4.32;;;11.30;99.90;;;;;;4972827;28;20172;-73
2021/12/15 00:33:43;;;;;;;8.38;4.95;;;11.30;99.90;;;;;;4994374;28;20215;-74
2021/12/15 00:36:12;;;;;;;5.85;4.10;;;11.30;99.90;;;;;;4968387;28;20190;-73
2021/12/15 00:38:41;;;;;;;5.55;4.28;;;11.30;99.90;;;;;;4969863;28;20188;-74
2021/12/15 00:41:09;;;;;;;6.75;4.15;;;11.30;99.90;;;;;;4971196;28;20196;-74
2021/12/15 00:43:36;;;;;;;6.30;4.10;;;11.30;99.90;;;;;;4968214;28;20219;-74
2021/12/15 00:46:05;;;;;;;5.35;3.95;;;11.30;99.90;;;;;;4957106;28;20331;-73
2021/12/15 00:48:31;;;;;;;5.45;4.20;;;11.30;99.90;;;;;;4982444;28;20176;-74
2021/12/15 00:50:59;;;;;;;4.85;3.72;;;11.30;99.90;;;;;;4968454;28;20303;-74
2021/12/15 00:53:28;;;;;;;5.43;3.80;;;11.30;99.90;;;;;;4978534;28;20242;-73
2021/12/15 00:55:58;;;;;;;5.60;3.95;;;11.30;99.90;;;;;;4965831;28;20168;-72
2021/12/15 00:58:24;;;;;;;4.97;3.58;;;11.40;99.90;;;;;;4976387;28;20188;-74
2021/12/15 01:00:57;;;;;;;5.18;3.50;;;11.40;99.90;;;;;;4966406;28;20202;-71
2021/12/15 01:03:26;;;;;;;4.65;3.40;;;11.40;99.90;;;;;;4976553;28;20240;-74
2021/12/15 01:05:59;;;;;;;5.25;3.63;;;11.40;99.90;;;;;;4972710;28;20199;-74
2021/12/15 01:08:28;;;;;;;4.07;3.00;;;11.40;99.90;;;;;;4965745;28;20200;-74
2021/12/15 01:11:23;;;;;;;4.10;2.90;;;11.40;99.90;;;;;;4975966;28;20545;-74
2021/12/15 01:22:24;;;;;;;2.40;1.63;;;11.50;99.90;;;;;;4961344;28;20219;-74
2021/12/15 01:24:56;;;;;;;2.30;1.83;;;11.60;99.90;;;;;;4979447;28;20180;-71
2021/12/15 01:27:21;;;;;;;2.17;1.80;;;11.60;99.90;;;;;;4990461;28;20219;-74
2021/12/15 01:29:47;;;;;;;2.10;1.85;;;11.60;99.90;;;;;;4960247;28;20177;-73
2021/12/15 01:32:13;;;;;;;2.38;1.35;;;11.60;99.90;;;;;;4970571;28;20375;-71
2021/12/15 01:34:38;;;;;;;2.10;1.45;;;11.60;99.90;;;;;;4975376;28;20194;-70
2021/12/15 01:37:05;;;;;;;1.60;1.30;;;11.60;99.90;;;;;;4967726;28;20184;-70
2021/12/15 01:39:31;;;;;;;2.38;1.52;;;11.60;99.90;;;;;;4974173;28;20203;-75
2021/12/15 01:41:57;;;;;;;1.70;1.40;;;11.60;99.90;;;;;;4970095;28;20198;-75
2021/12/15 01:47:01;;;;;;;1.40;1.30;;;11.60;99.90;;;;;;4965830;28;20211;-74
2021/12/15 01:49:36;;;;;;;1.90;1.60;;;11.70;99.90;;;;;;4984023;28;20184;-72
2021/12/15 01:52:19;;;;;;;1.65;1.40;;;11.70;99.90;;;;;;4961384;28;20272;-74
2021/12/15 01:54:49;;;;;;;2.00;1.40;;;11.70;99.90;;;;;;4969020;28;20208;-73
2021/12/15 01:57:21;;;;;;;2.08;1.58;;;11.70;99.90;;;;;;4986446;28;20176;-72
2021/12/15 01:59:49;;;;;;;2.00;1.70;;;11.70;99.90;;;;;;4971614;28;20271;-73
2021/12/15 02:02:19;;;;;;;2.53;1.75;;;11.70;99.90;;;;;;4975209;28;20254;-72
2021/12/15 02:04:45;;;;;;;2.70;1.63;;;11.70;99.90;;;;;;4970585;28;20215;-74
2021/12/15 02:07:18;;;;;;;1.90;1.60;;;11.70;99.90;;;;;;4987661;28;20222;-72
2021/12/15 02:12:26;;;;;;;3.35;1.80;;;11.70;99.90;;;;;;4966641;28;20191;-74
2021/12/15 02:14:52;;;;;;;1.88;1.48;;;11.70;99.90;;;;;;4981298;28;20379;-74
2021/12/15 02:17:22;;;;;;;3.05;1.48;;;11.70;99.90;;;;;;4965368;28;20260;-73
2021/12/15 02:19:50;;;;;;;1.98;1.77;;;11.70;99.90;;;;;;4968731;28;20184;-73
2021/12/15 02:22:16;;;;;;;1.75;1.52;;;11.70;99.90;;;;;;4966028;28;20196;-67
2021/12/15 02:24:49;;;;;;;1.88;1.60;;;11.70;99.90;;;;;;4976663;28;20192;-71
2021/12/15 02:27:15;;;;;;;2.00;1.77;;;11.70;99.90;;;;;;4969655;28;20200;-71
2021/12/15 02:29:47;;;;;;;1.77;1.40;;;11.70;99.90;;;;;;4969659;28;20206;-72
2021/12/15 02:37:30;;;;;;;1.60;1.30;;;11.70;99.90;;;;;;4964132;28;20245;-73
2021/12/15 02:39:56;;;;;;;1.70;1.40;;;11.70;99.90;;;;;;4997212;28;20189;-73
2021/12/15 02:42:39;;;;;;;1.48;1.17;;;11.60;99.90;;;;;;4991823;28;20201;-72
2021/12/15 02:45:08;;;;;;;1.17;1.08;;;11.70;99.90;;;;;;4950597;28;20184;-74
2021/12/15 02:47:38;;;;;;;1.25;1.00;;;11.60;99.90;;;;;;4969467;28;21928;-72
2021/12/15 02:50:08;;;;;;;1.35;1.08;;;11.60;99.90;;;;;;4968117;28;20472;-72
2021/12/15 02:52:37;;;;;;;1.30;1.00;;;11.60;99.90;;;;;;4971308;28;20272;-73
2021/12/15 02:55:07;;;;;;;1.23;1.02;;;11.70;99.90;;;;;;4967862;28;20192;-70
2021/12/15 02:57:35;;;;;;;1.02;0.93;;;11.60;99.90;;;;;;4966779;28;20178;-71
2021/12/15 03:00:16;;;;;;;1.10;0.90;;;11.70;99.90;;;;;;4968382;28;20203;-74
2021/12/15 03:05:24;;;;;;;0.98;0.77;;;11.70;99.90;;;;;;4968888;28;20176;-72
2021/12/15 03:15:59;;;;;;;0.80;0.77;;;11.70;99.90;;;;;;4964084;28;20219;-74
2021/12/15 03:18:28;;;;;;;0.93;0.80;;;11.70;99.90;;;;;;4978909;28;20176;-69
2021/12/15 03:20:59;;;;;;;1.35;1.05;;;11.70;99.90;;;;;;4963853;28;20177;-74
2021/12/15 03:23:28;;;;;;;1.75;1.40;;;11.70;99.90;;;;;;4969861;28;20330;-73
2021/12/15 03:25:57;;;;;;;2.00;1.20;;;11.70;99.90;;;;;;4968164;28;20237;-75
2021/12/15 03:34:36;;;;;;;2.10;1.70;;;11.70;99.90;;;;;;4974781;28;20214;-74
2021/12/15 03:39:32;;;;;;;2.42;1.80;;;11.70;99.90;;;;;;4978223;28;20247;-71
2021/12/15 03:42:06;;;;;;;3.00;1.85;;;11.70;99.90;;;;;;4971309;28;20192;-74
2021/12/15 03:44:37;;;;;;;2.88;1.80;;;11.70;99.90;;;;;;4974283;28;20742;-74
2021/12/15 03:47:07;;;;;;;2.30;1.80;;;11.70;99.90;;;;;;4965505;28;20200;-72
2021/12/15 03:49:38;;;;;;;2.80;1.60;;;11.70;99.90;;;;;;4984187;28;20237;-71
2021/12/15 03:52:07;;;;;;;1.98;1.77;;;11.70;99.90;;;;;;4964626;28;20195;-74
2021/12/15 03:54:35;;;;;;;2.00;1.73;;;11.70;99.90;;;;;;4968527;28;20196;-74
2021/12/15 03:57:05;;;;;;;2.25;1.70;;;11.70;99.90;;;;;;4971492;28;20265;-75
2021/12/15 03:59:34;;;;;;;2.00;1.50;;;11.70;99.90;;;;;;4976064;28;20188;-72
2021/12/15 04:02:00;;;;;;;2.25;1.70;;;11.70;99.90;;;;;;4970603;28;20176;-74
2021/12/15 04:04:25;;;;;;;2.13;1.40;;;11.70;99.90;;;;;;4969277;28;20252;-74
2021/12/15 04:06:53;;;;;;;1.33;1.02;;;11.70;99.90;;;;;;4974040;28;20208;-74
2021/12/15 04:09:19;;;;;;;0.75;0.70;;;11.70;99.90;;;;;;4967452;28;20191;-74
2021/12/15 04:11:45;;;;;;;0.80;0.60;;;11.70;99.90;;;;;;4970538;28;20196;-72
2021/12/15 04:14:21;;;;;;;0.95;0.70;;;11.70;99.90;;;;;;4978667;28;20202;-73
2021/12/15 04:17:02;;;;;;;0.40;0.40;;;11.70;99.90;;;;;;4967628;28;20229;-73
2021/12/15 04:19:29;;;;;;;0.30;0.30;;;11.70;99.90;;;;;;4966439;28;20183;-74
2021/12/15 04:21:59;;;;;;;0.50;0.43;;;11.70;99.90;;;;;;4968243;28;20214;-72
2021/12/15 04:24:27;;;;;;;0.45;0.40;;;11.70;99.90;;;;;;4967553;28;20208;-74
2021/12/15 04:26:56;;;;;;;0.63;0.50;;;11.70;99.90;;;;;;4974649;28;20204;-74
2021/12/15 04:29:27;;;;;;;0.60;0.50;;;11.70;99.90;;;;;;4979549;28;20177;-73
2021/12/15 04:32:02;;;;;;;0.60;0.50;;;11.70;99.90;;;;;;4962996;28;20268;-73
2021/12/15 04:34:28;;;;;;;0.50;0.50;;;11.70;99.90;;;;;;4974011;28;20176;-72
2021/12/15 04:36:57;;;;;;;0.70;0.50;;;11.70;99.90;;;;;;4968531;28;20180;-74
2021/12/15 04:39:26;;;;;;;0.73;0.60;;;11.70;99.90;;;;;;4968836;28;20185;-72
2021/12/15 04:41:57;;;;;;;0.80;0.57;;;11.70;99.90;;;;;;4972238;28;20187;-74
2021/12/15 04:44:30;;;;;;;0.75;0.57;;;11.70;99.90;;;;;;4969580;28;20188;-74
2021/12/15 04:47:05;;;;;;;1.13;0.60;;;11.70;99.90;;;;;;4970984;28;20228;-74
2021/12/15 04:49:55;;;;;;;0.80;0.65;;;11.60;99.90;;;;;;4969812;28;20265;-73
2021/12/15 04:52:27;;;;;;;0.90;0.77;;;11.60;99.90;;;;;;4968296;28;20244;-74
2021/12/15 04:54:54;;;;;;;0.90;0.60;;;11.60;99.90;;;;;;4981632;28;20192;-74
2021/12/15 04:57:22;;;;;;;1.10;0.80;;;11.60;99.90;;;;;;4979051;28;20180;-75
2021/12/15 04:59:48;;;;;;;1.33;0.93;;;11.60;99.90;;;;;;4977902;28;20644;-74
2021/12/15 05:02:21;;;;;;;1.05;0.95;;;11.50;99.90;;;;;;4970504;28;20208;-74
2021/12/15 05:04:48;;;;;;;1.17;0.98;;;11.50;99.90;;;;;;4975658;28;20204;-74
2021/12/15 05:07:17;;;;;;;1.88;1.40;;;11.50;99.90;;;;;;4964596;28;20189;-70
2021/12/15 05:09:44;;;;;;;2.40;1.70;;;11.50;99.90;;;;;;4970865;28;20180;-74
2021/12/15 05:12:11;;;;;;;2.80;2.03;;;11.50;99.90;;;;;;4975823;28;20382;-75
2021/12/15 05:14:39;;;;;;;1.60;1.50;;;11.40;99.90;;;;;;4982321;28;20188;-74
2021/12/15 05:17:05;;;;;;;1.70;1.40;;;11.40;99.90;;;;;;4977362;28;20180;-74
2021/12/15 05:19:35;;;;;;;1.85;1.50;;;11.40;99.90;;;;;;4993609;28;20179;-74
2021/12/15 05:22:05;;;;;;;1.75;1.40;;;11.40;99.90;;;;;;4976495;28;20184;-73
2021/12/15 05:24:34;;;;;;;1.50;1.25;;;11.40;99.90;;;;;;4967146;28;20264;-73
2021/12/15 05:27:05;;;;;;;1.60;1.40;;;11.40;99.90;;;;;;4979534;28;20200;-73
2021/12/15 05:29:31;;;;;;;2.25;1.15;;;11.30;99.90;;;;;;4972240;28;20184;-72
2021/12/15 05:32:00;;;;;;;1.63;1.50;;;11.30;99.90;;;;;;4970884;28;20200;-75
2021/12/15 05:34:28;;;;;;;1.80;1.45;;;11.30;99.90;;;;;;4968353;28;20184;-74
2021/12/15 05:36:54;;;;;;;1.58;1.38;;;11.30;99.90;;;;;;4968063;28;20263;-71
2021/12/15 05:39:21;;;;;;;2.45;1.38;;;11.40;99.90;;;;;;4972646;28;20277;-71
2021/12/15 05:41:52;;;;;;;1.42;1.30;;;11.30;99.90;;;;;;4979351;28;20195;-74
2021/12/15 05:44:19;;;;;;;3.50;1.67;;;11.40;99.90;;;;;;4976456;28;20191;-72
2021/12/15 05:46:45;;;;;;;1.90;1.40;;;11.40;99.90;;;;;;4983182;28;20212;-72
2021/12/15 05:49:14;;;;;;;1.40;1.20;;;11.40;99.90;;;;;;4975603;28;20181;-75
2021/12/15 05:51:42;;;;;;;1.48;1.10;;;11.40;99.90;;;;;;4966077;28;20192;-71
2021/12/15 05:54:12;;;;;;;1.20;1.10;;;11.30;99.90;;;;;;4972406;28;20426;-73
2021/12/15 05:56:41;;;;;;;1.63;1.30;;;11.40;99.90;;;;;;4969039;28;20208;-73
2021/12/15 05:59:07;;;;;;;1.42;1.10;;;11.40;99.90;;;;;;4977599;28;20208;-74
2021/12/15 06:01:33;;;;;;;1.42;1.10;;;11.30;99.90;;;;;;4970081;28;20188;-73
2021/12/15 06:04:03;;;;;;;1.35;1.23;;;11.30;99.90;;;;;;4970784;28;20231;-72
2021/12/15 06:06:32;;;;;;;2.55;1.10;;;11.30;99.90;;;;;;4970753;28;20291;-73
2021/12/15 06:08:58;;;;;;;1.33;1.17;;;11.40;99.90;;;;;;4974480;28;20180;-74
2021/12/15 06:11:26;;;;;;;1.80;1.38;;;11.30;99.90;;;;;;4976368;28;20207;-72
2021/12/15 06:13:54;;;;;;;1.52;0.98;;;11.30;99.90;;;;;;4971162;28;20181;-76
2021/12/15 06:16:23;;;;;;;1.40;1.00;;;11.30;99.90;;;;;;4971904;28;20190;-71
2021/12/15 06:24:06;;;;;;;1.98;1.30;;;11.30;99.90;;;;;;5140584;22;20234;-71
2021/12/15 06:26:33;;;;;;;1.40;1.30;;;11.30;99.90;;;;;;5093724;28;20444;-71
2021/12/15 06:28:59;;;;;;;1.63;1.13;;;11.20;99.90;;;;;;5072109;27;20390;-71
2021/12/15 06:31:27;;;;;;;1.40;1.20;;;11.20;99.90;;;;;;5105220;27;20251;-71
2021/12/15 06:33:53;;;;;;;2.08;1.10;;;11.20;99.90;;;;;;5101970;28;20208;-71
2021/12/15 06:36:24;;;;;;;1.30;1.10;;;11.20;99.90;;;;;;5108653;28;20298;-72
2021/12/15 06:38:54;;;;;;;2.15;1.30;;;11.10;99.90;;;;;;5107354;28;20175;-72
2021/12/15 06:41:21;;;;;;;2.75;1.30;;;11.10;99.90;;;;;;5098703;28;20222;-72
2021/12/15 06:43:58;;;;;;;2.30;1.20;;;11.10;99.90;;;;;;5099746;28;20245;-72
2021/12/15 07:00:21;;;;;;;1.33;1.20;;;11.00;99.90;;;;;;5104765;27;20222;-72
2021/12/15 07:02:49;;;;;;;1.50;1.20;;;11.00;99.90;;;;;;5099936;28;20176;-73
2021/12/15 07:05:21;;;;;;;1.17;1.08;;;11.00;99.90;;;;;;5096557;27;20172;-72
2021/12/15 07:07:48;;;;;;;1.20;1.00;;;11.00;99.90;;;;;;5107145;28;20199;-71
2021/12/15 07:10:19;;;;;;;1.35;1.08;;;11.00;99.90;;;;;;5102294;28;20195;-72
2021/12/15 07:12:47;;;;;;;1.20;1.00;;;11.00;99.90;;;;;;5108761;28;20402;-73
2021/12/15 07:15:16;;;;;;;1.33;1.00;;;11.10;99.90;;;;;;5116418;27;20175;-73
2021/12/15 07:17:50;;;;;;;1.55;1.25;;;11.10;99.90;;;;;;5111954;28;20186;-74
2021/12/15 07:23:06;;;;;;;1.98;1.48;;;11.10;99.90;;;;;;5111788;27;20221;-74
2021/12/15 07:25:35;;;;;;;1.95;1.60;;;11.10;99.90;;;;;;5109044;28;20319;-73
2021/12/15 07:28:04;;;;;;;2.47;1.58;;;11.10;99.90;;;;;;5079472;28;20279;-72
2021/12/15 07:30:33;;;;;;;2.53;1.80;;;11.10;99.90;;;;;;4981095;28;20191;-73
2021/12/15 07:33:02;;;;;;;3.38;1.80;;;11.10;99.90;;;;;;4984486;28;20180;-74
2021/12/15 07:35:28;;;;;;;2.42;1.75;;;11.10;99.90;;;;;;4979565;28;20175;-71
2021/12/15 07:37:54;;;;;;;3.42;2.13;;;11.10;99.90;;;;;;4989058;28;20207;-74
2021/12/15 07:40:22;;;;;;;2.85;2.25;;;11.10;99.90;;;;;;5014524;28;20205;-74
2021/12/15 07:45:28;;;;;;;2.50;1.98;;;11.10;99.90;;;;;;4974175;28;20184;-71
2021/12/15 07:47:57;;;;;;;2.88;2.20;;;11.10;99.90;;;;;;4987943;28;20325;-73
2021/12/15 07:50:27;;;;;;;4.05;2.40;;;11.10;99.90;;;;;;4982228;28;20214;-71
2021/12/15 07:52:53;;;;;;;3.90;2.25;;;11.10;99.90;;;;;;4986820;28;20231;-72
2021/12/15 07:55:25;;;;;;;3.85;2.40;;;11.10;99.90;;;;;;4980532;28;20210;-73
2021/12/15 07:57:52;;;;;;;2.88;2.40;;;11.00;99.90;;;;;;4981192;28;20232;-71
2021/12/15 08:00:19;;;;;;;2.65;2.30;;;11.10;99.90;;;;;;4993143;28;20278;-73
2021/12/15 08:02:46;;;;;;;3.80;2.58;;;11.00;99.90;;;;;;4972840;28;20261;-73
2021/12/15 08:05:12;;;;;;;3.13;2.30;;;11.00;99.90;;;;;;4980877;28;20196;-72
2021/12/15 08:07:37;;;;;;;3.17;2.50;;;11.00;99.90;;;;;;4977356;28;20258;-71
2021/12/15 08:10:08;;;;;;;3.80;2.70;;;11.00;99.90;;;;;;4994340;28;20180;-72
2021/12/15 08:12:38;;;;;;;3.90;2.80;;;11.00;99.90;;;;;;4984452;28;20182;-73
2021/12/15 08:15:07;;;;;;;3.30;2.70;;;11.00;99.90;;;;;;5018413;28;20377;-72
2021/12/15 08:17:34;;;;;;;3.58;2.67;;;11.00;99.90;;;;;;5007921;28;20202;-72
2021/12/15 08:20:03;;;;;;;3.30;2.60;;;11.00;99.90;;;;;;4991051;28;20236;-71
2021/12/15 08:22:33;;;;;;;3.35;2.58;;;11.00;99.90;;;;;;4988968;28;20203;-72
2021/12/15 08:24:59;;;;;;;3.35;2.33;;;11.00;99.90;;;;;;4988589;28;20464;-72
2021/12/15 08:27:25;;;;;;;3.88;2.47;;;11.00;99.90;;;;;;4987962;28;20203;-72
2021/12/15 08:29:53;;;;;;;3.63;2.60;;;11.00;99.90;;;;;;4969953;28;20199;-71
2021/12/15 08:32:18;;;;;;;3.25;2.53;;;11.00;99.90;;;;;;4982806;28;20173;-72
2021/12/15 08:34:44;;;;;;;3.35;2.22;;;11.10;99.90;;;;;;4969317;28;20198;-73
2021/12/15 08:37:15;;;;;;;2.53;2.03;;;11.10;99.90;;;;;;4969318;28;20194;-71
2021/12/15 08:39:46;;;;;;;3.70;2.70;;;11.20;99.90;;;;;;4971666;28;20183;-73
2021/12/15 08:42:19;;;;;;;4.63;2.60;;;11.20;99.90;;;;;;4969496;28;20301;-71
2021/12/15 08:44:47;;;;;;;3.20;2.25;;;11.20;99.90;;;;;;4967366;28;20690;-70
2021/12/15 08:47:13;;;;;;;3.53;2.15;;;11.20;99.90;;;;;;4970197;28;20211;-70
2021/12/15 08:49:39;;;;;;;2.92;2.30;;;11.30;99.90;;;;;;4973537;28;20267;-72
2021/12/15 08:52:06;;;;;;;2.58;1.85;;;11.30;99.90;;;;;;4977295;28;20176;-72
2021/12/15 08:54:33;;;;;;;2.92;2.30;;;11.30;99.90;;;;;;4969552;28;20187;-72
2021/12/15 08:57:01;;;;;;;2.45;1.90;;;11.30;99.90;;;;;;4975610;28;20218;-72
2021/12/15 08:59:29;;;;;;;2.38;2.10;;;11.30;99.90;;;;;;4966777;28;20262;-72
2021/12/15 09:01:58;;;;;;;2.55;2.03;;;11.30;99.90;;;;;;4998318;28;20188;-72
2021/12/15 09:04:23;;;;;;;2.85;2.10;;;11.30;99.90;;;;;;4981661;28;20176;-73
2021/12/15 09:06:54;;;;;;;3.15;2.10;;;11.40;99.90;;;;;;4967099;28;20199;-72
2021/12/15 09:09:21;;;;;;;3.22;1.88;;;11.40;99.90;;;;;;4973258;28;20188;-73
2021/12/15 09:11:48;;;;;;;2.38;1.88;;;11.40;99.90;;;;;;4968535;28;20200;-71
2021/12/15 09:14:17;;;;;;;2.28;1.65;;;11.40;99.90;;;;;;4969144;28;20172;-69
2021/12/15 09:16:48;;;;;;;1.75;1.50;;;11.40;99.90;;;;;;4972766;28;20407;-71
2021/12/15 09:19:15;;;;;;;3.08;1.77;;;11.40;99.90;;;;;;4959677;28;20180;-72
2021/12/15 09:21:43;;;;;;;2.17;1.45;;;11.40;99.90;;;;;;4973678;28;20200;-73
2021/12/15 09:24:13;;;;;;;1.60;1.40;;;11.40;99.90;;;;;;4990229;28;20215;-73
2021/12/15 09:26:39;;;;;;;2.10;1.77;;;11.40;99.90;;;;;;4965944;28;20245;-72
2021/12/15 09:29:09;;;;;;;2.63;1.70;;;11.40;99.90;;;;;;4968574;28;20238;-71
2021/12/15 09:31:35;;;;;;;2.13;1.70;;;11.40;99.90;;;;;;4964588;28;20195;-72
2021/12/15 09:34:04;;;;;;;3.05;1.50;;;11.40;99.90;;;;;;4983455;28;20271;-72
2021/12/15 09:36:31;;;;;;;2.00;1.40;;;11.40;99.90;;;;;;4970470;28;20192;-73
2021/12/15 09:39:03;;;;;;;2.03;1.70;;;11.40;99.90;;;;;;4962468;28;20177;-73
2021/12/15 09:41:29;;;;;;;1.88;1.52;;;11.40;99.90;;;;;;4966290;28;20196;-72
2021/12/15 09:43:58;;;;;;;3.10;1.83;;;11.50;99.90;;;;;;4985854;28;20184;-70
2021/12/15 09:46:40;;;;;;;2.00;1.80;;;11.50;99.90;;;;;;4975929;28;20234;-73
2021/12/15 10:01:53;;;;;;;2.30;1.65;;;11.50;99.90;;;;;;4976383;28;20241;-71
2021/12/15 10:03:06;;;;;;;2.35;1.80;;;11.50;99.90;;;;;;4961260;28;20211;-74
2021/12/15 10:05:46;;;;;;;3.10;1.50;;;11.60;99.90;;;;;;4969318;28;20180;-74
2021/12/15 10:19:19;;;;;;;3.50;2.25;;;11.70;99.90;;;;;;4956401;28;20292;-74
2021/12/15 10:22:06;;;;;;;3.55;2.58;;;11.80;99.90;;;;;;4965566;28;20218;-74
2021/12/15 10:24:43;;;;;;;4.18;2.30;;;11.90;99.90;;;;;;4967185;28;20173;-74
2021/12/15 10:27:13;;;;;;;3.63;2.53;;;11.90;99.90;;;;;;4981377;28;20231;-74
2021/12/15 10:29:58;;;;;;;3.70;2.53;;;11.90;99.90;;;;;;4963542;28;20225;-75
2021/12/15 10:32:30;;;;;;;3.50;2.50;;;11.90;99.90;;;;;;4976699;28;20222;-72
2021/12/15 10:35:08;;;;;;;3.33;2.40;;;11.90;99.90;;;;;;4963871;28;20211;-72
2021/12/15 10:37:35;;;;;;;3.08;2.22;;;11.90;99.90;;;;;;4979781;28;20215;-67
2021/12/15 10:40:23;;;;;;;2.53;2.25;;;11.90;99.90;;;;;;4970623;28;20177;-73
2021/12/15 10:43:01;;;;;;;2.75;2.30;;;12.00;99.90;;;;;;4967131;28;20203;-73
2021/12/15 10:45:43;;;;;;;3.30;2.67;;;12.00;99.90;;;;;;4969962;28;20245;-69
2021/12/15 10:48:23;;;;;;;3.25;2.47;;;12.00;99.90;;;;;;4968615;28;20196;-71
2021/12/15 10:50:49;;;;;;;2.75;2.10;;;12.00;99.90;;;;;;4967998;28;20223;-72
2021/12/15 10:53:31;;;;;;;2.65;1.98;;;12.00;99.90;;;;;;4968880;28;20187;-73
2021/12/15 10:55:58;;;;;;;2.92;1.70;;;12.10;99.90;;;;;;4955466;28;20212;-73
2021/12/15 10:58:38;;;;;;;1.80;1.60;;;12.10;99.90;;;;;;4960117;28;20218;-73
2021/12/15 11:01:24;;;;;;;2.10;1.70;;;12.20;99.90;;;;;;4960144;28;20188;-73
2021/12/15 11:03:50;;;;;;;2.88;1.95;;;12.20;99.90;;;;;;4958897;28;20204;-73
2021/12/15 11:06:27;;;;;;;2.30;1.80;;;12.30;99.90;;;;;;4964759;28;20250;-70
2021/12/15 11:09:13;;;;;;;2.58;1.95;;;12.30;99.90;;;;;;4964545;28;20417;-73
2021/12/15 11:11:57;;;;;;;2.22;1.30;;;12.40;99.90;;;;;;4967155;28;20243;-72
2021/12/15 11:14:29;;;;;;;1.80;1.42;;;12.40;99.90;;;;;;4956735;28;20203;-70
2021/12/15 11:17:18;;;;;;;2.10;1.50;;;12.40;99.90;;;;;;4960414;28;20169;-71
2021/12/15 11:19:50;;;;;;;1.58;1.27;;;12.50;99.90;;;;;;4964353;28;20200;-72
2021/12/15 11:22:35;;;;;;;1.75;1.48;;;12.50;99.90;;;;;;4987276;28;20320;-71
2021/12/15 11:25:07;;;;;;;1.77;1.63;;;12.60;99.90;;;;;;4952459;28;20185;-71
2021/12/15 11:27:35;;;;;;;1.77;1.40;;;12.60;99.90;;;;;;4966310;28;20223;-72
2021/12/15 11:30:02;;;;;;;2.25;1.60;;;12.60;99.90;;;;;;4970073;28;20196;-72
2021/12/15 11:32:40;;;;;;;1.67;1.35;;;12.60;99.90;;;;;;4962206;28;20188;-72
2021/12/15 11:35:17;;;;;;;2.22;1.52;;;12.70;99.90;;;;;;4977336;28;20184;-73
2021/12/15 11:37:49;;;;;;;1.90;1.70;;;12.70;99.90;;;;;;4958568;28;20371;-72
2021/12/15 11:40:22;;;;;;;3.78;1.90;;;12.70;99.90;;;;;;4970488;28;20208;-72
2021/12/15 11:42:48;;;;;;;1.92;1.40;;;12.70;99.90;;;;;;4966647;28;20183;-73
2021/12/15 11:45:16;;;;;;;2.38;1.75;;;12.70;99.90;;;;;;4980639;28;20262;-71
2021/12/15 11:47:42;;;;;;;2.58;1.90;;;12.70;99.90;;;;;;4966783;28;20208;-72
2021/12/15 11:50:14;;;;;;;2.78;1.90;;;12.80;99.90;;;;;;4963687;28;20192;-73
2021/12/15 11:52:45;;;;;;;2.42;1.85;;;12.80;99.90;;;;;;4968143;28;20409;-72
2021/12/15 11:55:41;;;;;;;3.55;2.20;;;12.80;99.90;;;;;;4965039;28;20211;-71
2021/12/15 11:58:06;;;;;;;3.55;2.25;;;12.80;99.90;;;;;;4968041;28;20208;-72
2021/12/15 12:00:32;;;;;;;2.95;2.35;;;12.80;99.90;;;;;;4970345;28;20182;-73
2021/12/15 12:02:59;;;;;;;3.63;2.53;;;12.80;99.90;;;;;;4963438;28;20248;-70
2021/12/15 12:05:29;;;;;;;3.80;2.70;;;12.80;99.90;;;;;;4965837;28;20245;-73
2021/12/15 12:08:02;;;;;;;4.60;3.03;;;12.80;99.90;;;;;;4990499;28;20264;-72
2021/12/15 12:10:45;;;;;;;5.32;2.97;;;12.80;99.90;;;;;;4954647;28;20384;-73
2021/12/15 12:13:20;;;;;;;4.50;2.97;;;12.80;99.90;;;;;;4959496;28;20184;-73
2021/12/15 12:15:50;;;;;;;4.25;3.00;;;12.80;99.90;;;;;;4969311;28;20336;-72
2021/12/15 12:18:22;;;;;;;3.63;2.63;;;12.80;99.90;;;;;;4956263;28;20189;-73
2021/12/15 12:20:52;;;;;;;4.43;3.20;;;12.80;99.90;;;;;;4960794;28;20271;-73
2021/12/15 12:23:21;;;;;;;4.00;3.10;;;12.80;99.90;;;;;;4967786;28;20188;-73
2021/12/15 12:25:53;;;;;;;4.43;2.85;;;12.80;99.90;;;;;;4962268;28;20183;-73
2021/12/15 12:28:22;;;;;;;3.75;2.65;;;12.80;99.90;;;;;;4980821;28;20216;-71
2021/12/15 12:30:51;;;;;;;3.47;2.28;;;12.70;99.90;;;;;;4961436;28;20263;-70
2021/12/15 12:33:21;;;;;;;4.57;2.70;;;12.70;99.90;;;;;;4998854;28;20238;-72
2021/12/15 12:35:53;;;;;;;3.50;2.70;;;12.80;99.90;;;;;;4957043;28;20234;-73
2021/12/15 12:38:24;;;;;;;3.53;2.50;;;12.80;99.90;;;;;;4963828;28;20272;-73
2021/12/15 12:40:55;;;;;;;2.90;2.30;;;12.70;99.90;;;;;;4980181;28;20192;-72
2021/12/15 12:43:29;;;;;;;2.92;2.28;;;12.80;99.90;;;;;;4961901;28;20287;-73
2021/12/15 12:45:57;;;;;;;2.85;2.25;;;12.80;99.90;;;;;;4974205;28;20203;-73
2021/12/15 12:48:46;;;;;;;3.33;2.63;;;12.80;99.90;;;;;;4962981;28;20204;-73
2021/12/15 12:59:47;;;;;;;2.92;2.40;;;12.70;99.90;;;;;;4981863;28;20319;-73
2021/12/15 13:02:47;;;;;;;3.28;2.58;;;12.70;99.90;;;;;;4986318;28;20248;-73
2021/12/15 13:05:27;;;;;;;3.72;2.63;;;12.70;99.90;;;;;;4971810;28;20493;-73
2021/12/15 13:07:56;;;;;;;3.28;2.58;;;12.60;99.90;;;;;;4976983;28;20286;-73
2021/12/15 13:10:47;;;;;;;3.22;2.55;;;12.60;99.90;;;;;;4958102;28;20184;-73
2021/12/15 13:13:48;;;;;;;3.53;2.40;;;12.60;99.90;;;;;;4961424;28;20173;-73
2021/12/15 13:16:27;;;;;;;3.05;2.40;;;12.60;99.90;;;;;;4973807;28;20295;-73
2021/12/15 13:18:58;;;;;;;4.38;2.40;;;12.60;99.90;;;;;;4980129;28;20431;-74
2021/12/15 13:21:50;;;;;;;4.25;2.17;;;12.60;99.90;;;;;;4970981;28;20285;-73
2021/12/15 13:30:47;;;;;;;3.85;2.05;;;12.60;99.90;;;;;;4973254;28;20215;-72
2021/12/15 13:33:34;;;;;;;2.97;1.95;;;12.60;99.90;;;;;;4972465;28;20184;-73
2021/12/15 13:36:25;;;;;;;4.00;1.90;;;12.70;99.90;;;;;;4970948;28;20203;-73
2021/12/15 13:38:55;;;;;;;3.25;2.50;;;12.70;99.90;;;;;;4960191;28;20181;-73
2021/12/15 13:44:04;;;;;;;4.63;2.75;;;12.70;99.90;;;;;;4968500;28;20208;-73
2021/12/15 13:46:31;;;;;;;4.55;3.00;;;12.80;99.90;;;;;;4961931;28;20191;-72
2021/12/15 13:49:16;;;;;;;4.05;2.83;;;12.80;99.90;;;;;;4999231;28;20273;-73
2021/12/15 13:51:59;;;;;;;3.88;2.60;;;12.80;99.90;;;;;;4960586;28;20276;-71
2021/12/15 13:54:35;;;;;;;3.20;2.20;;;12.80;99.90;;;;;;4957870;28;20243;-72
2021/12/15 13:57:13;;;;;;;3.97;2.85;;;12.90;99.90;;;;;;4967452;28;20213;-70
2021/12/15 13:59:51;;;;;;;4.10;2.80;;;12.90;99.90;;;;;;4965386;28;20195;-72
2021/12/15 14:02:21;;;;;;;6.30;2.38;;;12.90;99.90;;;;;;4967316;28;20234;-71
2021/12/15 14:04:50;;;;;;;4.07;2.30;;;13.00;99.90;;;;;;4965472;28;20245;-72
2021/12/15 14:07:33;;;;;;;3.30;2.40;;;13.00;99.90;;;;;;4966773;28;20211;-72
2021/12/15 14:10:01;;;;;;;2.58;2.15;;;13.00;99.90;;;;;;4959446;28;21089;-71
2021/12/15 14:12:47;;;;;;;2.47;2.10;;;13.00;99.90;;;;;;4954115;28;20192;-73
2021/12/15 14:15:38;;;;;;;2.13;1.73;;;13.00;99.90;;;;;;4962610;28;21126;-73
2021/12/15 14:18:26;;;;;;;2.05;1.75;;;13.00;99.90;;;;;;4964273;28;20176;-68
2021/12/15 14:21:00;;;;;;;2.20;1.77;;;13.00;99.90;;;;;;4963148;28;20201;-72
2021/12/15 14:23:34;;;;;;;3.05;1.58;;;13.00;99.90;;;;;;4965865;28;20262;-73
2021/12/15 14:26:05;;;;;;;1.90;1.67;;;13.00;99.90;;;;;;4962092;28;20195;-70
2021/12/15 14:28:35;;;;;;;1.58;1.33;;;13.00;99.90;;;;;;4976473;28;20214;-73
2021/12/15 14:31:04;;;;;;;4.13;1.50;;;13.00;99.90;;;;;;4958476;28;20199;-69
2021/12/15 14:33:41;;;;;;;2.17;1.40;;;13.00;99.90;;;;;;4957261;28;20200;-73
2021/12/15 14:36:17;;;;;;;2.42;1.30;;;13.00;99.90;;;;;;4960300;28;20203;-71
2021/12/15 14:38:42;;;;;;;1.20;1.10;;;13.00;99.90;;;;;;4966826;28;20187;-71
2021/12/15 14:41:13;;;;;;;1.17;1.00;;;13.00;99.90;;;;;;4969711;28;20184;-70
2021/12/15 14:43:40;;;;;;;1.33;0.90;;;13.00;99.90;;;;;;4998473;28;20187;-71
2021/12/15 14:46:24;;;;;;;1.23;1.00;;;13.00;99.90;;;;;;4960079;28;20403;-71
2021/12/15 14:49:08;;;;;;;0.90;0.80;;;13.00;99.90;;;;;;4965930;28;20177;-71
2021/12/15 14:51:37;;;;;;;1.58;1.20;;;13.00;99.90;;;;;;4967008;28;20180;-71